WetterOnline ( http://www.wetteronline.de )

Wetter aktuell Oeverdiek, Neuhof, Timmendorfer Strand

Aktuelles Wetter: Dörnick (28m)

6-stündlich | Neueste Meldungen
Ortszeit Temperatur Wetter
Sa, 17.11. 13:00 5.5° C wolkenlos
Sa, 17.11. 7:00 3.4° C wolkenlos
Sa, 17.11. 1:00 3.8° C wolkenlos
Fr, 16.11. 19:00 7.1° C wolkenlos
Fr, 16.11. 13:00 9.0° C wolkenlos
Fr, 16.11. 7:00 4.9° C wolkenlos
Fr, 16.11. 1:00 6.4° C wolkenlos
Do, 15.11. 19:00 8.4° C wolkenlos
Ortszeit Temperatur Wetter
Sa, 17.11. 15:30 5.8° C fast wolkenlos
Sa, 17.11. 15:20 5.8° C fast wolkenlos
Sa, 17.11. 15:10 5.9° C wolkenlos
Sa, 17.11. 15:00 6.1° C fast wolkenlos
Sa, 17.11. 14:50 6.1° C fast wolkenlos
Sa, 17.11. 14:40 6.4° C fast wolkenlos
Sa, 17.11. 14:30 6.3° C wolkenlos
Sa, 17.11. 14:00 6.3° C wolkenlos
Sa, 17.11. 13:30 5.9° C wolkenlos
Sa, 17.11. 13:00 5.5° C wolkenlos
Sa, 17.11. 12:30 5.3° C wolkenlos
Ortszeit Relative Feuchte Sichtweite
Sa, 17.11. 13:00 75% 8 km
Sa, 17.11. 7:00 82% 11 km
Sa, 17.11. 1:00 84% 13 km
Fr, 16.11. 19:00 74% 23 km
Fr, 16.11. 13:00 69% 9 km
Fr, 16.11. 7:00 89% 8 km
Fr, 16.11. 1:00 88% 14 km
Do, 15.11. 19:00 81% 17 km
Ortszeit Relative Feuchte Sichtweite
Sa, 17.11. 15:30 75% 11 km
Sa, 17.11. 15:20 75% -
Sa, 17.11. 15:10 77% -
Sa, 17.11. 15:00 74% 10 km
Sa, 17.11. 14:50 74% -
Sa, 17.11. 14:40 74% -
Sa, 17.11. 14:30 74% 8 km
Sa, 17.11. 14:00 74% 9 km
Sa, 17.11. 13:30 75% 9 km
Sa, 17.11. 13:00 75% 8 km
Sa, 17.11. 12:30 78% 8 km
Ortszeit Niederschlagsmenge Niederschlagsart
Sa, 17.11. 13:00 0.0 l/m2 in 6 Std. -
Sa, 17.11. 7:00 0.0 l/m2 in 12 Std. -
Sa, 17.11. 1:00 0.0 l/m2 in 6 Std. -
Fr, 16.11. 19:00 0.0 l/m2 in 12 Std. -
Fr, 16.11. 13:00 0.0 l/m2 in 6 Std. -
Fr, 16.11. 7:00 0.0 l/m2 in 12 Std. -
Fr, 16.11. 1:00 0.0 l/m2 in 6 Std. -
Do, 15.11. 19:00 0.0 l/m2 in 12 Std. -
Ortszeit Niederschlagsmenge Niederschlagsart
Sa, 17.11. 15:30 0.0 l/m2 in 1 Std. -
Sa, 17.11. 15:20 keine Meldung -
Sa, 17.11. 15:10 keine Meldung -
Sa, 17.11. 15:00 0.0 l/m2 in 1 Std. -
Sa, 17.11. 14:50 keine Meldung -
Sa, 17.11. 14:40 keine Meldung -
Sa, 17.11. 14:30 0.0 l/m2 in 1 Std. -
Sa, 17.11. 14:00 0.0 l/m2 in 1 Std. -
Sa, 17.11. 13:30 0.0 l/m2 in 1 Std. -
Sa, 17.11. 13:00 0.0 l/m2 in 1 Std. -
Sa, 17.11. 12:30 0.0 l/m2 in 1 Std. -
Ortszeit Stärke Spitze Richtung
km/h Bft. km/h Grad Sektor
Sa, 17.11. 13:00 13 3 26 110° O
Sa, 17.11. 7:00 13 3 26 120° SO
Sa, 17.11. 1:00 9 2 33 110° O
Fr, 16.11. 19:00 14 3 32 120° SO
Fr, 16.11. 13:00 15 3 30 150° SO
Fr, 16.11. 7:00 13 3 28 130° SO
Fr, 16.11. 1:00 11 2 25 130° SO
Do, 15.11. 19:00 13 3 26 120° SO
Ortszeit Stärke Spitze Richtung
km/h Bft. km/h Grad Sektor
Sa, 17.11. 15:30 11 2 17 80° O
Sa, 17.11. 15:20 11 2 - 80° O
Sa, 17.11. 15:10 11 2 - 70° O
Sa, 17.11. 15:00 9 2 19 90° O
Sa, 17.11. 14:50 9 2 - 90° O
Sa, 17.11. 14:40 7 2 - 110° O
Sa, 17.11. 14:30 11 2 18 110° O
Sa, 17.11. 14:00 9 2 17 120° SO
Sa, 17.11. 13:30 9 2 17 110° O
Sa, 17.11. 13:00 13 3 20 110° O
Sa, 17.11. 12:30 11 2 18 120° SO
Ortszeit Untergrenze Bedeckung Gattung
total tief tief mittel hoch
Sa, 17.11. 13:00 - 0/8 0/8 - - -
Sa, 17.11. 7:00 - 0/8 0/8 - - -
Sa, 17.11. 1:00 - 0/8 0/8 - - -
Fr, 16.11. 19:00 - 0/8 0/8 - - -
Fr, 16.11. 13:00 - 0/8 0/8 - - -
Fr, 16.11. 7:00 - 0/8 0/8 - - -
Fr, 16.11. 1:00 - 0/8 0/8 - - -
Do, 15.11. 19:00 - 0/8 0/8 - - -
Ortszeit Bedeckungsgrad in Achtel und Wolkenuntergrenze
Sa, 17.11. 15:30 2(7800m)
Sa, 17.11. 15:20 2(7800m)
Sa, 17.11. 15:10 keine Wolken
Sa, 17.11. 15:00 1(9000m)
Sa, 17.11. 14:50 1(9000m)
Sa, 17.11. 14:40 1(9000m)
Sa, 17.11. 14:30 2(9000m)
Sa, 17.11. 14:00 keine Wolken
Sa, 17.11. 13:30 keine Wolken
Sa, 17.11. 13:00 keine Wolken
Sa, 17.11. 12:30 keine Wolken
Ortszeit Luftdruck NN (hPa) Tendenz (hPa in 3 Std.)
Sa, 17.11. 13:00 1039 - 0,2
Sa, 17.11. 7:00 1038 + 0,1
Sa, 17.11. 1:00 1037 + 1,2
Fr, 16.11. 19:00 1035 + 0,9
Fr, 16.11. 13:00 1034 + 0,3
Fr, 16.11. 7:00 1032 + 0,7
Fr, 16.11. 1:00 1030 + 0,6
Do, 15.11. 19:00 1029 + 0,3
Ortszeit Luftdruck NN (hPa) Tendenz (hPa in 3 Std.)
Sa, 17.11. 15:30 1039 - 0,2
Sa, 17.11. 15:20 1039 keine Meldung
Sa, 17.11. 15:10 1039 keine Meldung
Sa, 17.11. 15:00 1039 - 0,5
Sa, 17.11. 14:50 1039 keine Meldung
Sa, 17.11. 14:40 1039 keine Meldung
Sa, 17.11. 14:30 1039 - 0,8
Sa, 17.11. 14:00 1039 - 0,7
Sa, 17.11. 13:30 1039 - 0,6
Sa, 17.11. 13:00 1039 - 0,2
Sa, 17.11. 12:30 1039 - 0,1
Ortszeit Schneehöhe (cm)
Sa, 17.11. 13:00 0
Sa, 17.11. 7:00 0
Sa, 17.11. 1:00 0
Fr, 16.11. 19:00 0
Fr, 16.11. 13:00 0
Fr, 16.11. 7:00 0
Fr, 16.11. 1:00 0
Do, 15.11. 19:00 0
Ortszeit Schneehöhe (cm)
Sa, 17.11. 15:30 0
Sa, 17.11. 15:20 0
Sa, 17.11. 15:10 0
Sa, 17.11. 15:00 0
Sa, 17.11. 14:50 0
Sa, 17.11. 14:40 0
Sa, 17.11. 14:30 0
Sa, 17.11. 14:00 0
Sa, 17.11. 13:30 0
Sa, 17.11. 13:00 0
Sa, 17.11. 12:30 0
Link zu dieser Seite / Seite empfehlen

Das Wetter in ...